Tiempo atmosférico en la estación meteorológica de San Roque, Cádiz (1 m.)



Fecha
DESCASC
Temp. máxima en grados centígrados (hora)
DESCASC
Temp. mínima en grados centígrados (hora)
DESCASC
Temp. media en grados centígrados
DESCASC
Racha de viento máxima en m/sg (hora)
DESCASC
Velocidad máxima media en intervalos de 10 minutos(hora)
DESCASC
Precipitaciones diarias en mm
DESCASC
Precipitaciones de 00:00 a 06:00 en mm
DESCASC
Precipitaciones de 06:00 a 12:00 en mm
DESCASC
Precipitaciones de 12:00 a 18:00 en mm
DESCASC
Precipitaciones de 18:00 a 24:00 en mm
DESCASC
19-01-2020 16.5 (15:30) 9.5 (23:59) 13 15.28 (03:30) 7.78 (02:20) 2 2 0 0 0
18-01-2020 18.4 (14:20) 8.4 (03:30) 13.4 10 (22:00) 6.11 (22:00) 3.6 0 0 0 3.6
17-01-2020 20.6 (15:20) 7 (05:30) 13.8 7.5 (17:30) 5 (17:40) 0 0 0 0 0
16-01-2020 17.2 (15:30) 5.7 (00:00) 11.5 6.39 (06:30) 4.17 (09:20) 0 0 0 0 0
15-01-2020 17.8 (15:40) 6.4 (00:00) 12.1 6.11 (07:40) 4.17 (16:50) 0 0 0 0 0
14-01-2020 18 (16:50) 5.3 (00:00) 11.7 8.61 (14:20) 5.28 (14:20) 0 0 0 0 0
13-01-2020 16.5 (14:30) 5.5 (00:00) 11 5.83 (11:30) 3.61 (07:00) 0 0 0 0 0
12-01-2020 16.9 (14:10) 6.3 (00:00) 11.6 6.39 (00:50) 3.61 (00:50) 0 0 0 0 0
11-01-2020 18.5 (14:50) 8.5 (00:00) 13.5 8.61 (21:40) 6.94 (20:40) 0 0 0 0 0
10-01-2020 16.9 (13:50) 6.9 (00:00) 11.9 11.67 (14:40) 8.33 (14:50) 0 0 0 0 0
09-01-2020 16.8 (15:10) 8.3 (00:00) 12.5 7.5 (00:20) 4.44 (01:00) 0 0 0 0 0
08-01-2020 16.2 (14:20) 5 (00:00) 10.6 6.67 (23:30) 4.44 (08:20) 0 0 0 0 0
07-01-2020 17.3 (15:10) 6.4 (00:00) 11.8 6.11 (11:30) 3.61 (08:50) 0 0 0 0 0
06-01-2020 17.4 (14:20) 12.7 (00:00) 15 7.78 (15:00) 6.39 (14:50) 0 0 0 0 0
05-01-2020 15.2 (14:40) 13.6 (00:00) 14.4 11.39 (00:20) 9.72 (01:20) 0 0 0 0 0
04-01-2020 16 (15:00) 7.7 (00:00) 11.8 10 (23:10) 8.61 (23:10) 0 0 0 0 0
03-01-2020 17.9 (16:50) 9.5 (00:00) 13.7 6.39 (21:40) 4.17 (15:30) 0 0 0 0 0
02-01-2020 16.9 (15:20) 8.6 (00:00) 12.8 5.83 (11:00) 3.89 (11:50) 0 0 0 0 0
01-01-2020 16.6 (15:40) 9 (00:00) 12.8 7.78 (00:50) 5 (01:20) 0 0 0 0 0
31-12-2019 16.1 (14:20) 13.7 (00:00) 14.9 9.17 (01:40) 5.83 (01:40) 0 0 0 0 0
30-12-2019 -- (--) -- (--) -- -- (--) -- (--) -- 0 0 0 --
29-12-2019 15.5 (13:30) 14.1 (00:00) 14.8 12.78 (09:20) 10.28 (09:20) 0 0 0 0 0
28-12-2019 17.3 (15:40) 14 (00:00) 15.6 9.17 (17:10) 7.78 (17:00) 0 0 0 0 0
27-12-2019 17.8 (14:30) 9.9 (00:00) 13.8 10 (16:30) 7.78 (16:30) 0 0 0 0 0
26-12-2019 17.7 (15:00) 7.2 (00:00) 12.5 5.56 (02:50) 3.89 (02:50) 0 0 0 0 0
25-12-2019 20.4 (14:50) 7.3 (00:00) 13.8 6.39 (04:20) 4.44 (04:20) 0 0 0 0 0
24-12-2019 19.1 (13:50) 7.2 (00:00) 13.2 5.83 (15:30) 5 (15:30) 0 0 0 0 0
23-12-2019 20.7 (13:10) 10.8 (00:00) 15.8 8.61 (04:50) 5.56 (03:30) 0 0 0 0 0

Gráficas

Temp. máximas Temp. mínimas Temp. medias Precipitaciones Rachas de viento máximas Velocidades máximas media en intervalos de 10 minutos

Datos horarios

Fecha y hora oficial Temperatura (ºC) Velocidad del viento (km/h) Dirección del viento Racha (km/h) Dirección de racha Precipitación (mm) Presión (hPa) Tendencia (hPa) Humedad (%)
2020-01-21 23:00:00 11.9 6 Este 18 Nordeste 0 -- -- 83
2020-01-21 22:00:00 10.8 3 Noroeste 5 Noroeste 0 -- -- 86
2020-01-21 21:00:00 11.4 3 Nordeste 9 Oeste 0 -- -- 81
2020-01-21 20:00:00 11.6 3 Noroeste 8 Oeste 0 -- -- 80
2020-01-21 19:00:00 12.2 5 Oeste 20 Oeste 0 -- -- 75
2020-01-21 18:00:00 13.1 16 Sudoeste 23 Sudoeste 0 -- -- 71
2020-01-21 17:00:00 13.9 12 Sudoeste 21 Oeste 0 -- -- 68
2020-01-21 16:00:00 14.3 14 Oeste 23 Oeste 0 -- -- 65
2020-01-21 15:00:00 14.7 15 Oeste 27 Oeste 0 -- -- 63
2020-01-21 14:00:00 15.9 19 Sudoeste 30 Sudoeste 0 -- -- 62
2020-01-21 13:00:00 15.5 17 Sudoeste 28 Oeste 0 -- -- 67
2020-01-21 12:00:00 13.9 7 Oeste 15 Oeste 0 -- -- 75
2020-01-21 11:00:00 10.1 4 Norte 16 Noroeste 0 -- -- 84
2020-01-21 10:00:00 8.5 7 Noroeste 16 Noroeste 0 -- -- 93
2020-01-21 09:00:00 6.1 9 Noroeste 15 Noroeste 0 -- -- 96
2020-01-21 08:00:00 6.2 10 Noroeste 21 Noroeste 0 -- -- 96
2020-01-21 07:00:00 6.1 11 Noroeste 17 Noroeste 0 -- -- 97
2020-01-21 06:00:00 6.6 9 Noroeste 18 Noroeste 0 -- -- 97
2020-01-21 05:00:00 7 10 Noroeste 18 Norte 0 -- -- 97
2020-01-21 04:00:00 7.5 10 Noroeste 18 Noroeste 0 -- -- 97
2020-01-21 03:00:00 8.3 8 Noroeste 16 Noroeste 0 -- -- 96
2020-01-21 02:00:00 9 10 Noroeste 17 Noroeste 1 -- -- 96
2020-01-21 01:00:00 9.8 6 Noroeste 24 Nordeste 2.6 -- -- 93
2020-01-21 00:00:00 11.3 17 Nordeste 32 Nordeste 0 -- -- 90
2020-01-20 23:00:00 11.3 15 Nordeste 27 Este 0.8 -- -- 90
2020-01-20 22:00:00 8.7 9 Noroeste 18 Noroeste 0 -- -- 91
2020-01-20 21:00:00 8.5 10 Noroeste 18 Norte 0 -- -- 91
2020-01-20 20:00:00 8.9 9 Norte 14 Norte 0 -- -- 92
2020-01-20 19:00:00 9.2 9 Noroeste 20 Nordeste 0 -- -- 90
2020-01-20 18:00:00 10.3 12 Nordeste 23 Nordeste 0.4 -- -- 83
2020-01-20 17:00:00 10.2 7 Norte 16 Norte 0 -- -- 88
2020-01-20 16:00:00 9.7 9 Noroeste 21 Norte 0.4 -- -- 88
2020-01-20 15:00:00 10.3 15 Norte 25 Nordeste 0.8 -- -- 85
2020-01-20 14:00:00 11.8 10 Este 29 Este 0.2 -- -- 78
2020-01-20 13:00:00 11.5 4 Noroeste 12 Noroeste 0 -- -- 69
2020-01-20 12:00:00 10.1 8 Noroeste 18 Norte 0 -- -- 71
2020-01-20 11:00:00 8.9 10 Noroeste 19 Noroeste 0 -- -- 74
2020-01-20 10:00:00 7.6 7 Noroeste 13 Noroeste 0 -- -- 83
2020-01-20 09:00:00 7.1 8 Noroeste 13 Noroeste 0 -- -- 83
2020-01-20 08:00:00 7.3 8 Noroeste 15 Noroeste 0 -- -- 83
2020-01-20 07:00:00 7.6 6 Noroeste 13 Noroeste 0 -- -- 88
2020-01-20 06:00:00 8.5 5 Noroeste 15 Noroeste 0.4 -- -- 89
2020-01-20 05:00:00 8.1 8 Norte 13 Noroeste 0 -- -- 89
2020-01-20 04:00:00 8.8 6 Noroeste 12 Noroeste 0.6 -- -- 91
2020-01-20 03:00:00 9.3 7 Norte 28 Sudeste 0.6 -- -- 90
2020-01-20 02:00:00 10.4 21 Este 50 Este 1.8 -- -- 89
2020-01-20 01:00:00 8.8 4 Noroeste 11 Noroeste 0 -- -- 77
2020-01-20 00:00:00 9.5 7 Noroeste 16 Noroeste 0 -- -- 72
2020-01-19 23:00:00 10.5 8 Norte 24 Noroeste 0 -- -- 68
2020-01-19 22:00:00 11.1 13 Noroeste 26 Norte 0 -- -- 66
2020-01-19 21:00:00 11.4 14 Noroeste 27 Noroeste 0 -- -- 66
2020-01-19 20:00:00 11.7 13 Noroeste 25 Norte 0 -- -- 69
2020-01-19 19:00:00 12 13 Noroeste 38 Noroeste 0 -- -- 74
2020-01-19 18:00:00 14 4 Norte 28 Norte 0 -- -- 57
2020-01-19 17:00:00 15.1 10 Norte 33 Norte 0 -- -- 56
2020-01-19 16:00:00 15.8 13 Norte 33 Noroeste 0 -- -- 57
2020-01-19 15:00:00 16.1 18 Noroeste 33 Noroeste 0 -- -- 63
2020-01-19 14:00:00 15.1 14 Noroeste 31 Noroeste 0 -- -- 64
2020-01-19 13:00:00 15.1 16 Noroeste 40 Noroeste 0 -- -- 68
2020-01-19 12:00:00 14.2 22 Noroeste 39 Oeste 0 -- -- 71
2020-01-19 11:00:00 13.5 13 Noroeste 29 Norte 0 -- -- 75
2020-01-19 10:00:00 12.2 13 Oeste 29 Noroeste 0 -- -- 79
2020-01-19 09:00:00 11.5 13 Noroeste 36 Noroeste 0 -- -- 79
2020-01-19 08:00:00 11.6 18 Oeste 42 Noroeste 0 -- -- 80
2020-01-19 07:00:00 12 21 Oeste 35 Oeste 0 -- -- 84
2020-01-19 06:00:00 12.3 18 Oeste 43 Oeste 0 -- -- 87
2020-01-19 05:00:00 12.3 21 Oeste 38 Oeste 0 -- -- 86
2020-01-19 04:00:00 12.7 17 Oeste 55 Oeste 0 -- -- 83
2020-01-19 03:00:00 13.5 26 Noroeste 46 Noroeste 0 -- -- 87
2020-01-19 02:00:00 15.4 23 Noroeste 40 Noroeste 2 -- -- 95
2020-01-19 01:00:00 16 13 Oeste 28 Oeste 0 -- -- 97
2020-01-19 00:00:00 16.1 16 Oeste 22 Oeste 1 -- -- 98
2020-01-18 23:00:00 16.1 11 Oeste 32 Oeste 0.2 -- -- 97
2020-01-18 22:00:00 16 22 Sudoeste 36 Oeste 0.2 -- -- 97
2020-01-18 21:00:00 15.7 17 Sudoeste 24 Sudoeste 0.2 -- -- 96
2020-01-18 20:00:00 15.6 3 Oeste 17 Sudoeste 0 -- -- 93
2020-01-18 19:00:00 16.2 11 Oeste 22 Oeste 2 -- -- 87
2020-01-18 18:00:00 17.2 13 Oeste 24 Oeste 0 -- -- 80
2020-01-18 17:00:00 17.8 16 Oeste 30 Sudoeste 0 -- -- 77
2020-01-18 16:00:00 18.3 17 Oeste 31 Oeste 0 -- -- 75
2020-01-18 15:00:00 18.4 14 Oeste 26 Sudoeste 0 -- -- 76
2020-01-18 14:00:00 18 15 Oeste 24 Sudoeste 0 -- -- 77
2020-01-18 13:00:00 16.1 13 Oeste 23 Oeste 0 -- -- 85
2020-01-18 12:00:00 12.6 8 Noroeste 15 Noroeste 0 -- -- 83
2020-01-18 11:00:00 11.4 6 Norte 12 Noroeste 0 -- -- 82
2020-01-18 10:00:00 9.9 7 Noroeste 17 Noroeste 0 -- -- 89
2020-01-18 09:00:00 9.3 10 Noroeste 17 Noroeste 0 -- -- 87
2020-01-18 08:00:00 9.3 9 Noroeste 17 Noroeste 0 -- -- 89
2020-01-18 07:00:00 9.4 12 Noroeste 18 Norte 0 -- -- 89
2020-01-18 06:00:00 9.5 6 Noroeste 17 Noroeste 0 -- -- 89
2020-01-18 05:00:00 8.6 6 Oeste 15 Norte 0 -- -- 93
2020-01-18 04:00:00 9 6 Noroeste 12 Noroeste 0 -- -- 94
2020-01-18 03:00:00 9.4 5 Noroeste 17 Noroeste 0 -- -- 93
2020-01-18 02:00:00 10.3 13 Norte 23 Noroeste 0 -- -- 94
2020-01-18 01:00:00 10.3 11 Noroeste 18 Noroeste 0 -- -- 94
2020-01-18 00:00:00 11.3 8 Noroeste 17 Noroeste 0 -- -- 93
2020-01-17 23:00:00 12.2 9 Norte 14 Norte 0 -- -- 93
2020-01-17 22:00:00 13.2 9 Noroeste 15 Norte 0 -- -- 91
2020-01-17 21:00:00 14.3 8 Noroeste 21 Oeste 0 -- -- 87
2020-01-17 20:00:00 15.1 12 Oeste 27 Oeste 0 -- -- 85
2020-01-17 19:00:00 16 16 Oeste 24 Noroeste 0 -- -- 81
2020-01-17 18:00:00 18 14 Oeste 27 Oeste 0 -- -- 74
2020-01-17 17:00:00 19.1 18 Oeste 25 Oeste 0 -- -- 68
2020-01-17 16:00:00 20.2 14 Oeste 24 Oeste 0 -- -- 64
2020-01-17 15:00:00 20.5 14 Oeste 26 Oeste 0 -- -- 63
2020-01-17 14:00:00 19.3 10 Noroeste 25 Noroeste 0 -- -- 68
2020-01-17 13:00:00 18.7 12 Noroeste 23 Noroeste 0 -- -- 72
2020-01-17 12:00:00 16 10 Noroeste 18 Oeste 0 -- -- 79
2020-01-17 11:00:00 11.1 9 Noroeste 17 Noroeste 0 -- -- 75
2020-01-17 10:00:00 9.5 12 Norte 22 Noroeste 0 -- -- 78
2020-01-17 09:00:00 8.1 14 Noroeste 22 Noroeste 0 -- -- 82
2020-01-17 08:00:00 7.5 13 Noroeste 21 Noroeste 0 -- -- 87
2020-01-17 07:00:00 7.3 15 Noroeste 23 Noroeste 0 -- -- 87
2020-01-17 06:00:00 7 11 Noroeste 19 Noroeste 0 -- -- 90
2020-01-17 05:00:00 7.1 10 Noroeste 17 Noroeste 0 -- -- 92
2020-01-17 04:00:00 7.2 10 Noroeste 17 Norte 0 -- -- 94
2020-01-17 03:00:00 7.4 8 Noroeste 17 Noroeste 0 -- -- 94
2020-01-17 02:00:00 7.3 6 Noroeste 10 Noroeste 0 -- -- 95
2020-01-17 01:00:00 8 6 Noroeste 9 Noroeste 0 -- -- 96
2020-01-17 00:00:00 8.4 8 Noroeste 10 Noroeste 0 -- -- 96
2020-01-16 23:00:00 8.9 4 Noroeste 13 Noroeste 0 -- -- 95
2020-01-16 22:00:00 9.9 10 Noroeste 12 Noroeste 0 -- -- 96
2020-01-16 21:00:00 10.6 9 Noroeste 10 Noroeste 0 -- -- 94
2020-01-16 20:00:00 11.7 3 Oeste 6 Oeste 0 -- -- 89
2020-01-16 19:00:00 13.8 3 Sudoeste 5 Sudoeste 0 -- -- 82
2020-01-16 18:00:00 16.6 3 Sur 5 Sur 0 -- -- 80
2020-01-16 17:00:00 17 3 Sur 5 Sur 0 -- -- 78
2020-01-16 16:00:00 17.1 4 Sudeste 6 Este 0 -- -- 77
2020-01-16 15:00:00 17 4 Sudeste 5 Sudeste 0 -- -- 76
2020-01-16 14:00:00 16.6 4 Este 5 Este 0 -- -- 75
2020-01-16 13:00:00 16.7 3 Sudeste 5 Noroeste 0 -- -- 75
2020-01-16 12:00:00 13.9 5 Noroeste 16 Noroeste 0 -- -- 69
2020-01-16 11:00:00 10.1 13 Noroeste 21 Norte 0 -- -- 72
2020-01-16 10:00:00 7.2 15 Noroeste 23 Noroeste 0 -- -- 79
2020-01-16 09:00:00 5.7 15 Noroeste 22 Norte 0 -- -- 83
2020-01-16 08:00:00 6.1 14 Noroeste 22 Noroeste 0 -- -- 81
2020-01-16 07:00:00 5.9 14 Noroeste 23 Norte 0 -- -- 83
2020-01-16 06:00:00 5.9 15 Noroeste 20 Noroeste 0 -- -- 84
2020-01-16 05:00:00 6.1 13 Noroeste 20 Noroeste 0 -- -- 84
2020-01-16 04:00:00 6.7 13 Noroeste 19 Noroeste 0 -- -- 82
2020-01-16 03:00:00 6.9 13 Noroeste 20 Noroeste 0 -- -- 83
2020-01-16 02:00:00 6.8 13 Noroeste 18 Noroeste 0 -- -- 86
2020-01-16 01:00:00 7.6 12 Noroeste 18 Noroeste 0 -- -- 83
2020-01-16 00:00:00 8.5 13 Norte 19 Noroeste 0 -- -- 81
2020-01-15 23:00:00 8.8 10 Noroeste 13 Noroeste 0 -- -- 80
2020-01-15 22:00:00 9.5 8 Noroeste 13 Noroeste 0 -- -- 82
2020-01-15 21:00:00 9.9 6 Noroeste 9 Noroeste 0 -- -- 90
2020-01-15 20:00:00 10.9 4 Noroeste 8 Norte 0 -- -- 88
2020-01-15 19:00:00 13.6 4 Norte 7 Sudeste 0 -- -- 81
2020-01-15 18:00:00 16.7 0 Calma 17 Sur 0 -- -- 75
2020-01-15 17:00:00 17.3 15 Sur 18 Sur 0 -- -- 75
2020-01-15 16:00:00 17.7 8 Sudeste 12 Sudeste 0 -- -- 72
2020-01-15 15:00:00 17.4 9 Sudeste 12 Sudeste 0 -- -- 71
2020-01-15 14:00:00 17.2 8 Sudeste 11 Sudeste 0 -- -- 65
2020-01-15 13:00:00 16.9 8 Sudeste 9 Sudeste 0 -- -- 67
2020-01-15 12:00:00 14 5 Noroeste 15 Norte 0 -- -- 70
2020-01-15 11:00:00 10.5 9 Norte 17 Noroeste 0 -- -- 80
2020-01-15 10:00:00 8 9 Noroeste 21 Noroeste 0 -- -- 86
2020-01-15 09:00:00 6.6 11 Noroeste 20 Noroeste 0 -- -- 90
2020-01-15 08:00:00 6.7 12 Norte 22 Norte 0 -- -- 90
2020-01-15 07:00:00 6.9 10 Noroeste 18 Norte 0 -- -- 89
2020-01-15 06:00:00 7.5 13 Noroeste 20 Norte 0 -- -- 89
2020-01-15 05:00:00 7 8 Noroeste 13 Noroeste 0 -- -- 91
2020-01-15 04:00:00 6.6 3 Oeste 11 Noroeste 0 -- -- 89
2020-01-15 03:00:00 8 5 Noroeste 12 Noroeste 0 -- -- 87
2020-01-15 02:00:00 8.5 4 Noroeste 12 Noroeste 0 -- -- 87
2020-01-15 01:00:00 9.2 8 Noroeste 13 Norte 0 -- -- 86
2020-01-15 00:00:00 9.2 6 Noroeste 10 Noroeste 0 -- -- 85
2020-01-14 23:00:00 10.4 5 Noroeste 20 Noroeste 0 -- -- 80
2020-01-14 22:00:00 11.7 13 Noroeste 21 Noroeste 0 -- -- 81
2020-01-14 21:00:00 11.5 9 Noroeste 15 Noroeste 0 -- -- 80
2020-01-14 20:00:00 12.9 9 Noroeste 20 Oeste 0 -- -- 73
2020-01-14 19:00:00 13.3 13 Oeste 19 Oeste 0 -- -- 71
2020-01-14 18:00:00 16.2 8 Oeste 22 Oeste 0 -- -- 58
2020-01-14 17:00:00 18 13 Oeste 23 Oeste 0 -- -- 52
2020-01-14 16:00:00 17.4 10 Oeste 23 Oeste 0 -- -- 55
2020-01-14 15:00:00 17.1 14 Oeste 31 Oeste 0 -- -- 52
2020-01-14 14:00:00 16.1 13 Oeste 27 Oeste 0 -- -- 64
2020-01-14 13:00:00 15 9 Oeste 18 Sudoeste 0 -- -- 77
2020-01-14 12:00:00 10.3 6 Noroeste 15 Noroeste 0 -- -- 91
2020-01-14 11:00:00 7.5 9 Noroeste 18 Noroeste 0 -- -- 93
2020-01-14 10:00:00 6.9 11 Noroeste 15 Noroeste 0 -- -- 94
2020-01-14 09:00:00 6.1 11 Noroeste 22 Noroeste 0 -- -- 96
2020-01-14 08:00:00 5.6 12 Noroeste 17 Norte 0 -- -- 97
2020-01-14 07:00:00 5.4 6 Noroeste 11 Noroeste 0 -- -- 97
2020-01-14 06:00:00 5.9 6 Noroeste 14 Norte 0 -- -- 97
2020-01-14 05:00:00 6.4 6 Noroeste 15 Noroeste 0 -- -- 96
2020-01-14 04:00:00 6.8 7 Noroeste 17 Noroeste 0 -- -- 97
2020-01-14 03:00:00 7.1 9 Noroeste 14 Noroeste 0 -- -- 97
2020-01-14 02:00:00 7.1 8 Noroeste 14 Noroeste 0 -- -- 97
2020-01-14 01:00:00 7.5 8 Noroeste 13 Noroeste 0 -- -- 97
2020-01-14 00:00:00 8 10 Noroeste 14 Noroeste 0 -- -- 96
2020-01-13 23:00:00 8.5 10 Noroeste 15 Noroeste 0 -- -- 95
2020-01-13 22:00:00 9.1 10 Noroeste 15 Noroeste 0 -- -- 94
2020-01-13 21:00:00 9.6 9 Noroeste 13 Noroeste 0 -- -- 92
2020-01-13 20:00:00 10.4 5 Noroeste 6 Noroeste 0 -- -- 88
2020-01-13 19:00:00 12.4 2 Oeste 10 Sudeste 0 -- -- 79
2020-01-13 18:00:00 14.8 8 Sudeste 13 Sudeste 0 -- -- 75
2020-01-13 17:00:00 15.8 9 Sudeste 14 Sudeste 0 -- -- 73
2020-01-13 16:00:00 16.2 9 Sudeste 12 Sudeste 0 -- -- 70
2020-01-13 15:00:00 16.1 9 Este 15 Este 0 -- -- 71
2020-01-13 14:00:00 15.8 5 Este 14 Nordeste 0 -- -- 73
2020-01-13 13:00:00 15.2 9 Nordeste 19 Nordeste 0 -- -- 76
2020-01-13 12:00:00 14.6 10 Nordeste 21 Nordeste 0 -- -- 80
2020-01-13 11:00:00 9.6 8 Noroeste 17 Noroeste 0 -- -- 91
2020-01-13 10:00:00 6.8 11 Noroeste 19 Noroeste 0 -- -- 95
2020-01-13 09:00:00 5.5 9 Noroeste 17 Noroeste 0 -- -- 96
2020-01-13 08:00:00 5.9 12 Noroeste 17 Norte 0 -- -- 96
2020-01-13 07:00:00 6.2 13 Noroeste 18 Noroeste 0 -- -- 97
2020-01-13 06:00:00 6 12 Noroeste 17 Norte 0 -- -- 97
2020-01-13 05:00:00 6.6 11 Noroeste 16 Norte 0 -- -- 97
2020-01-13 04:00:00 6.5 10 Noroeste 17 Noroeste 0 -- -- 97
2020-01-13 03:00:00 7 12 Noroeste 16 Noroeste 0 -- -- 96
2020-01-13 02:00:00 7.4 10 Noroeste 17 Noroeste 0 -- -- 96
2020-01-13 01:00:00 8 10 Noroeste 15 Noroeste 0 -- -- 96
2020-01-13 00:00:00 8.5 10 Noroeste 16 Noroeste 0 -- -- 95
2020-01-12 23:00:00 9.1 11 Noroeste 15 Noroeste 0 -- -- 95
2020-01-12 22:00:00 9.5 8 Noroeste 13 Noroeste 0 -- -- 94
2020-01-12 21:00:00 10.1 9 Noroeste 12 Noroeste 0 -- -- 93
2020-01-12 20:00:00 11.8 4 Noroeste 11 Sudeste 0 -- -- 86
2020-01-12 19:00:00 14.3 8 Sudeste 13 Sudeste 0 -- -- 82
2020-01-12 18:00:00 15.3 10 Sudeste 17 Sudeste 0 -- -- 79
2020-01-12 17:00:00 16 12 Sudeste 15 Sudeste 0 -- -- 76
2020-01-12 16:00:00 16.7 8 Sudeste 11 Este 0 -- -- 72
2020-01-12 15:00:00 16.6 7 Este 12 Este 0 -- -- 72
2020-01-12 14:00:00 16.7 5 Este 12 Nordeste 0 -- -- 74
2020-01-12 13:00:00 16 6 Nordeste 13 Nordeste 0 -- -- 76
2020-01-12 12:00:00 15 9 Nordeste 14 Nordeste 0 -- -- 80
2020-01-12 11:00:00 11 9 Noroeste 17 Norte 0 -- -- 84
2020-01-12 10:00:00 8.3 12 Noroeste 18 Norte 0 -- -- 90
2020-01-12 09:00:00 6.6 12 Noroeste 17 Noroeste 0 -- -- 94
2020-01-12 08:00:00 6.7 11 Noroeste 18 Noroeste 0 -- -- 93
2020-01-12 07:00:00 7.2 13 Noroeste 17 Noroeste 0 -- -- 92
2020-01-12 06:00:00 7.8 11 Noroeste 16 Noroeste 0 -- -- 91
2020-01-12 05:00:00 8.5 10 Noroeste 17 Norte 0 -- -- 90
2020-01-12 04:00:00 9.3 8 Norte 15 Noroeste 0 -- -- 88
2020-01-12 03:00:00 10.8 4 Nordeste 21 Nordeste 0 -- -- 86
2020-01-12 02:00:00 13.9 12 Nordeste 23 Nordeste 0 -- -- 82
2020-01-12 01:00:00 14.1 13 Nordeste 23 Nordeste 0 -- -- 80
2020-01-12 00:00:00 14.1 13 Nordeste 22 Nordeste 0 -- -- 82
2020-01-11 23:00:00 14 11 Nordeste 28 Este 0 -- -- 81
2020-01-11 22:00:00 14.4 21 Este 31 Este 0 -- -- 76
2020-01-11 21:00:00 14.5 23 Este 29 Este 0 -- -- 78
2020-01-11 20:00:00 14.6 21 Este 26 Este 0 -- -- 78
2020-01-11 19:00:00 14.8 19 Este 24 Este 0 -- -- 76
2020-01-11 18:00:00 15.7 15 Este 21 Este 0 -- -- 71
2020-01-11 17:00:00 17.2 6 Este 14 Este 0 -- -- 65
2020-01-11 16:00:00 17.8 5 Este 14 Este 0 -- -- 67
2020-01-11 15:00:00 18.5 5 Este 13 Este 0 -- -- 67
2020-01-11 14:00:00 18.1 6 Este 14 Este 0 -- -- 70
2020-01-11 13:00:00 17.8 5 Este 20 Este 0 -- -- 71
2020-01-11 12:00:00 16.8 16 Este 21 Este 0 -- -- 67
2020-01-11 11:00:00 15.9 14 Sudeste 21 Sudeste 0 -- -- 74
2020-01-11 10:00:00 11.9 6 Norte 18 Sudeste 0 -- -- 86
2020-01-11 09:00:00 9.1 12 Noroeste 20 Noroeste 0 -- -- 83
2020-01-11 08:00:00 8.6 12 Noroeste 16 Noroeste 0 -- -- 84
2020-01-11 07:00:00 9.3 9 Noroeste 14 Noroeste 0 -- -- 82
2020-01-11 06:00:00 9.7 9 Noroeste 16 Noroeste 0 -- -- 79
2020-01-11 05:00:00 9.6 9 Noroeste 17 Noroeste 0 -- -- 74
2020-01-11 04:00:00 9.5 11 Noroeste 17 Norte 0 -- -- 74
2020-01-11 03:00:00 9.9 10 Noroeste 14 Noroeste 0 -- -- 72
2020-01-11 02:00:00 9.4 10 Noroeste 15 Norte 0 -- -- 77
2020-01-11 01:00:00 9.2 11 Noroeste 16 Noroeste 0 -- -- 77
2020-01-11 00:00:00 9.4 8 Noroeste 14 Norte 0 -- -- 76
2020-01-10 23:00:00 10 10 Noroeste 13 Noroeste 0 -- -- 76
2020-01-10 22:00:00 10.5 9 Noroeste 13 Noroeste 0 -- -- 76
2020-01-10 21:00:00 11.7 8 Noroeste 14 Noroeste 0 -- -- 73
2020-01-10 20:00:00 12.7 9 Noroeste 19 Noroeste 0 -- -- 73
2020-01-10 19:00:00 13.6 11 Noroeste 28 Oeste 0 -- -- 75
2020-01-10 18:00:00 14.6 16 Noroeste 31 Noroeste 0 -- -- 72
2020-01-10 17:00:00 15.1 16 Oeste 31 Oeste 0 -- -- 70
2020-01-10 16:00:00 15.8 22 Oeste 36 Oeste 0 -- -- 67
2020-01-10 15:00:00 16.1 25 Oeste 42 Oeste 0 -- -- 65
2020-01-10 14:00:00 16.9 24 Oeste 39 Oeste 0 -- -- 63
2020-01-10 13:00:00 16.4 18 Oeste 30 Oeste 0 -- -- 64
2020-01-10 12:00:00 15.4 18 Oeste 25 Oeste 0 -- -- 75
2020-01-10 11:00:00 12.8 7 Noroeste 15 Oeste 0 -- -- 86
2020-01-10 10:00:00 9.9 7 Noroeste 12 Noroeste 0 -- -- 96
2020-01-10 09:00:00 7.9 8 Noroeste 9 Noroeste 0 -- -- 96
2020-01-10 08:00:00 7.3 2 Noroeste 9 Noroeste 0 -- -- 94
2020-01-10 07:00:00 6.9 2 Noroeste 9 Norte 0 -- -- 94
2020-01-10 06:00:00 7.6 6 Norte 14 Noroeste 0 -- -- 94
2020-01-10 05:00:00 8.1 5 Noroeste 11 Noroeste 0 -- -- 95
2020-01-10 04:00:00 8.1 4 Noroeste 12 Noroeste 0 -- -- 94
2020-01-10 03:00:00 8.6 11 Noroeste 17 Noroeste 0 -- -- 95
2020-01-10 02:00:00 8.4 8 Norte 19 Noroeste 0 -- -- 94
2020-01-10 01:00:00 9.7 13 Noroeste 22 Noroeste 0 -- -- 95
2020-01-10 00:00:00 8.6 9 Noroeste 14 Noroeste 0 -- -- 95
2020-01-09 23:00:00 9 9 Noroeste 14 Norte 0 -- -- 94
2020-01-09 22:00:00 9.3 5 Noroeste 10 Noroeste 0 -- -- 90
2020-01-09 21:00:00 10.2 6 Noroeste 12 Noroeste 0 -- -- 89
2020-01-09 20:00:00 11 3 Oeste 10 Noroeste 0 -- -- 85
2020-01-09 19:00:00 13 4 Noroeste 8 Sudeste 0 -- -- 80
2020-01-09 18:00:00 15.6 5 Sudeste 9 Sudeste 0 -- -- 73
2020-01-09 17:00:00 16.7 3 Sudeste 10 Sudeste 0 -- -- 67
2020-01-09 16:00:00 16.8 8 Sudeste 14 Este 0 -- -- 70
2020-01-09 15:00:00 16.6 9 Sudeste 17 Este 0 -- -- 71
2020-01-09 14:00:00 16.7 10 Este 17 Este 0 -- -- 70
2020-01-09 13:00:00 15.4 8 Nordeste 15 Este 0 -- -- 81
2020-01-09 12:00:00 13.2 5 Norte 14 Noroeste 0 -- -- 88
2020-01-09 11:00:00 9.5 8 Noroeste 18 Norte 0 -- -- 92
2020-01-09 10:00:00 8.7 10 Noroeste 17 Noroeste 0 -- -- 93
2020-01-09 09:00:00 8.4 11 Noroeste 15 Noroeste 0 -- -- 94
2020-01-09 08:00:00 8.7 8 Noroeste 14 Noroeste 0 -- -- 92
2020-01-09 07:00:00 10.5 5 Norte 12 Noroeste 0 -- -- 90
2020-01-09 06:00:00 12.7 6 Norte 19 Nordeste 0 -- -- 84
2020-01-09 05:00:00 13.6 12 Nordeste 21 Este 0 -- -- 86
2020-01-09 04:00:00 13.7 11 Nordeste 23 Nordeste 0 -- -- 87
2020-01-09 03:00:00 13.5 14 Nordeste 27 Nordeste 0 -- -- 87
2020-01-09 02:00:00 13.5 14 Nordeste 24 Nordeste 0 -- -- 88
2020-01-09 01:00:00 13.5 16 Nordeste 27 Nordeste 0 -- -- 89
2020-01-09 00:00:00 13.5 13 Nordeste 24 Nordeste 0 -- -- 90
2020-01-08 23:00:00 13.5 8 Nordeste 19 Nordeste 0 -- -- 89
2020-01-08 22:00:00 13.3 7 Este 14 Este 0 -- -- 87
2020-01-08 21:00:00 13.5 5 Este 18 Este 0 -- -- 88
2020-01-08 20:00:00 13.3 9 Este 17 Este 0 -- -- 91
2020-01-08 19:00:00 13.2 6 Este 9 Sudeste 0 -- -- 86
2020-01-08 18:00:00 15.3 6 Sudeste 8 Sudeste 0 -- -- 81
2020-01-08 17:00:00 15.9 5 Sudeste 10 Este 0 -- -- 79
2020-01-08 16:00:00 15.9 5 Sudeste 9 Este 0 -- -- 80
2020-01-08 15:00:00 15.8 5 Este 11 Este 0 -- -- 80
2020-01-08 14:00:00 15.8 5 Este 10 Nordeste 0 -- -- 81
2020-01-08 13:00:00 14.8 6 Nordeste 10 Noroeste 0 -- -- 85
2020-01-08 12:00:00 11.8 8 Noroeste 16 Noroeste 0 -- -- 81
2020-01-08 11:00:00 9.2 12 Noroeste 21 Noroeste 0 -- -- 84
2020-01-08 10:00:00 6.6 15 Noroeste 23 Noroeste 0 -- -- 94
2020-01-08 09:00:00 5.2 15 Noroeste 22 Noroeste 0 -- -- 97
2020-01-08 08:00:00 5.4 14 Noroeste 21 Noroeste 0 -- -- 96
2020-01-08 07:00:00 6 14 Noroeste 20 Noroeste 0 -- -- 96
2020-01-08 06:00:00 6.2 13 Noroeste 20 Noroeste 0 -- -- 96
2020-01-08 05:00:00 6.8 13 Noroeste 19 Noroeste 0 -- -- 96
2020-01-08 04:00:00 7.6 12 Noroeste 19 Noroeste 0 -- -- 97
2020-01-08 03:00:00 8 12 Noroeste 18 Noroeste 0 -- -- 97
2020-01-08 02:00:00 8.6 11 Noroeste 19 Norte 0 -- -- 97
2020-01-08 01:00:00 8.6 12 Noroeste 18 Noroeste 0 -- -- 97
2020-01-08 00:00:00 9.1 11 Noroeste 15 Noroeste 0 -- -- 96
2020-01-07 23:00:00 9.6 9 Noroeste 14 Noroeste 0 -- -- 96
2020-01-07 22:00:00 10.1 7 Norte 12 Noroeste 0 -- -- 94
2020-01-07 21:00:00 10.6 6 Noroeste 11 Este 0 -- -- 90
2020-01-07 20:00:00 13.4 5 Este 12 Este 0 -- -- 88
2020-01-07 19:00:00 13.9 3 Este 11 Este 0 -- -- 85
2020-01-07 18:00:00 15.8 3 Este 14 Este 0 -- -- 78
2020-01-07 17:00:00 16.4 5 Este 15 Este 0 -- -- 77
2020-01-07 16:00:00 16.9 6 Este 15 Este 0 -- -- 75
2020-01-07 15:00:00 17.2 5 Este 15 Este 0 -- -- 75
2020-01-07 14:00:00 16 7 Nordeste 19 Este 0 -- -- 79
2020-01-07 13:00:00 15.2 6 Este 18 Nordeste 0 -- -- 82
2020-01-07 12:00:00 15.1 8 Este 22 Nordeste 0 -- -- 86
2020-01-07 11:00:00 11.2 8 Nordeste 17 Noroeste 0 -- -- 95
2020-01-07 10:00:00 7.8 11 Noroeste 17 Norte 0 -- -- 92
2020-01-07 09:00:00 6.4 12 Noroeste 18 Noroeste 0 -- -- 95
2020-01-07 08:00:00 6.8 11 Noroeste 18 Noroeste 0 -- -- 95
2020-01-07 07:00:00 6.9 10 Noroeste 16 Noroeste 0 -- -- 95
2020-01-07 06:00:00 7 8 Norte 16 Noroeste 0 -- -- 95
2020-01-07 05:00:00 7.5 9 Noroeste 14 Noroeste 0 -- -- 95
2020-01-07 04:00:00 7.9 12 Noroeste 17 Noroeste 0 -- -- 95
2020-01-07 03:00:00 7.9 10 Noroeste 14 Norte 0 -- -- 95
2020-01-07 02:00:00 8.3 8 Norte 13 Noroeste 0 -- -- 94
2020-01-07 01:00:00 9 7 Norte 13 Noroeste 0 -- -- 92
2020-01-07 00:00:00 12.7 8 Nordeste 18 Nordeste 0 -- -- 85
2020-01-06 23:00:00 13.4 6 Nordeste 20 Este 0 -- -- 87
2020-01-06 22:00:00 13.6 8 Este 19 Este 0 -- -- 85
2020-01-06 21:00:00 13.5 10 Este 20 Este 0 -- -- 84
2020-01-06 20:00:00 13.7 5 Este 18 Este 0 -- -- 84
2020-01-06 19:00:00 14.1 14 Este 24 Este 0 -- -- 82
2020-01-06 18:00:00 14.7 21 Este 26 Este 0 -- -- 80
2020-01-06 17:00:00 15.5 17 Este 26 Este 0 -- -- 77
2020-01-06 16:00:00 15.9 20 Este 27 Este 0 -- -- 75
2020-01-06 15:00:00 16.2 17 Este 28 Este 0 -- -- 74
2020-01-06 14:00:00 17.1 10 Este 21 Este 0 -- -- 72
2020-01-06 13:00:00 16.5 9 Este 22 Nordeste 0 -- -- 74
2020-01-06 12:00:00 15.5 12 Este 23 Nordeste 0 -- -- 80
2020-01-06 11:00:00 14.8 11 Este 26 Nordeste 0 -- -- 82
2020-01-06 10:00:00 14.3 13 Nordeste 24 Nordeste 0 -- -- 81